Terminal Aerodrome Forecast
Issued by NWS Central Illinois

Home | Current Version | Previous Version | Text Only | Print | Product List | Glossary On
Versions: 1 2 3 4 5 6 7 8 9 10 11 12 13 14
963
FTUS43 KILX 210539
TAFPIA
TAF
KPIA 210539Z 2106/2206 16005KT P6SM -DZ BKN030
     FM210900 16005KT 5SM -DZ BR OVC010
     FM211100 16006KT 2SM -DZ BR OVC003
     FM211400 16006KT 1/2SM -DZ FG OVC003
     FM211600 16006KT 1SM -DZ BR OVC003
     FM220000 14005KT 2SM BR OVC003=

USA.gov is the U.S. government's official web portal to all federal, state and local government web resources and services.